Time;durP1;ratioP1;P1;durP2;ratioP2;P2;SDS_P1;SDS_P2;PMS_P1;PMS_P2;Temp;Humidity;BMP_temperature;BMP_pressure;BME280_temperature;BME280_humidity;BME280_pressure;Samples;Min_cycle;Max_cycle;Signal;HPM_P1;HPM_P2
2022/08/24 03:29:15;;;;;;;;;;;;;;;13.53;100.00;99688.97;6150048;22;20605;-86
2022/08/24 03:31:41;;;;;;;;;;;;;;;13.45;100.00;99691.19;6286335;22;19922;-88
2022/08/24 03:34:06;;;;;;;;;;;;;;;13.59;100.00;99683.28;6314669;22;19931;-87
2022/08/24 03:36:40;;;;;;;;;;;;;;;13.46;100.00;99684.91;6312484;22;20338;-90
2022/08/24 03:39:16;;;;;;;;;;;;;;;13.69;100.00;99677.41;6282373;22;19907;-89
2022/08/24 03:41:41;;;;;;;;;;;;;;;13.57;100.00;99685.16;6289750;22;19911;-86
2022/08/24 03:44:08;;;;;;;;;;;;;;;13.69;100.00;99685.41;6317903;22;19907;-85
2022/08/24 03:46:35;;;;;;;;;;;;;;;13.65;100.00;99681.22;6317886;22;19911;-87
2022/08/24 03:49:03;;;;;;;;;;;;;;;13.52;100.00;99681.91;6293867;22;19915;-96
2022/08/24 03:51:36;;;;;;;;;;;;;;;13.71;100.00;99678.22;6312487;22;19961;-89
2022/08/24 03:54:02;;;;;;;;;;;;;;;13.56;100.00;99683.47;6280884;22;19914;-85
2022/08/24 03:56:28;;;;;;;;;;;;;;;13.76;100.00;99669.00;6306962;22;19918;-88
2022/08/24 03:58:53;;;;;;;;;;;;;;;13.63;100.00;99670.66;6305240;22;19910;-90
2022/08/24 04:01:19;;;;;;;;;;;;;;;13.72;100.00;99677.25;6306930;22;19915;-92
2022/08/24 04:03:45;;;;;;;;;;;;;;;13.71;100.00;99673.72;6307024;22;20333;-94
2022/08/24 04:06:11;;;;;;;;;;;;;;;13.64;100.00;99677.66;6307078;22;19973;-94
2022/08/24 04:08:37;;;;;;;;;;;;;;;13.72;100.00;99677.25;6305455;22;19915;-93
2022/08/24 04:11:03;;;;;;;;;;;;;;;13.51;100.00;99687.31;6279497;22;19918;-92
2022/08/24 04:13:31;;;;;;;;;;;;;;;13.75;100.00;99685.06;6305283;22;19946;-90
2022/08/24 04:15:56;;;;;;;;;;;;;;;13.61;100.00;99685.88;6306702;22;19926;-91
2022/08/24 04:18:22;;;;;;;;;;;;;;;13.83;100.00;99674.81;6306658;22;19915;-92
2022/08/24 04:20:47;;;;;;;;;;;;;;;13.67;100.00;99684.63;6307105;22;19964;-92
2022/08/24 04:23:13;;;;;;;;;;;;;;;13.77;100.00;99692.03;6305273;22;19997;-92
2022/08/24 04:25:43;;;;;;;;;;;;;;;13.65;100.00;99689.19;6306814;22;19915;-92
2022/08/24 04:28:10;;;;;;;;;;;;;;;13.57;100.00;99687.81;6305274;22;19983;-91
2022/08/24 04:30:38;;;;;;;;;;;;;;;13.73;100.00;99695.78;6305342;22;19919;-89
2022/08/24 04:33:09;;;;;;;;;;;;;;;13.56;100.00;99694.09;6280716;22;19915;-92
2022/08/24 04:35:41;;;;;;;;;;;;;;;13.79;100.00;99699.91;6307324;22;19938;-94
2022/08/24 04:38:07;;;;;;;;;;;;;;;13.63;100.00;99707.94;6306615;22;19993;-91
2022/08/24 07:50:31;;;;;;;;;;;;;;;13.66;100.00;99784.09;6157911;22;19925;-95
2022/08/24 07:53:00;;;;;;;;;;;;;;;13.83;100.00;99784.00;6281298;22;19914;-92
2022/08/24 07:55:25;;;;;;;;;;;;;;;13.65;100.00;99783.22;6280350;22;19914;-89
2022/08/24 07:57:51;;;;;;;;;;;;;;;13.80;100.00;99786.84;6307762;22;19915;-95
2022/08/24 08:00:18;;;;;;;;;;;;;;;13.74;100.00;99790.72;6307566;22;20310;-89
2022/08/24 08:03:01;;;;;;;;;;;;;;;;;;;;;
2022/08/24 08:05:26;;;;;;;;;;;;;;;16.04;100.00;99787.56;6304961;22;19981;-85
2022/08/24 08:07:52;;;;;;;;;;;;;;;14.64;100.00;99778.44;6304741;22;20306;-88
2022/08/24 08:10:17;;;;;;;;;;;;;;;14.18;100.00;99783.78;6277603;22;19994;-92
2022/08/24 08:12:42;;;;;;;;;;;;;;;13.90;100.00;99788.03;6304885;22;19911;-89
2022/08/24 08:15:08;;;;;;;;;;;;;;;13.81;100.00;99794.72;6304967;22;19922;-90
2022/08/24 08:17:35;;;;;;;;;;;;;;;13.81;100.00;99796.53;6305365;22;19915;-90
2022/08/24 08:20:02;;;;;;;;;;;;;;;13.58;100.00;99787.19;6303120;22;20009;-95
2022/08/24 08:25:13;;;;;;;;;;;;;;;13.63;100.00;99803.75;6306862;22;19922;-91
2022/08/24 08:27:38;;;;;;;;;;;;;;;13.80;100.00;99800.16;6303868;22;19930;-90
2022/08/24 08:30:04;;;;;;;;;;;;;;;13.65;100.00;99788.56;6278188;22;19915;-91
2022/08/24 08:32:30;;;;;;;;;;;;;;;13.75;100.00;99788.91;6307138;22;19942;-91
2022/08/24 08:34:55;;;;;;;;;;;;;;;13.72;100.00;99789.06;6305186;22;19922;-87
2022/08/24 08:37:21;;;;;;;;;;;;;;;13.53;100.00;99786.56;6279132;22;19967;-87
2022/08/24 08:39:46;;;;;;;;;;;;;;;13.75;100.00;99780.91;6306635;22;19956;-90
2022/08/24 08:42:23;;;;;;;;;;;;;;;13.56;100.00;99778.41;6306832;22;20239;-92
2022/08/24 08:44:48;;;;;;;;;;;;;;;13.81;100.00;99772.59;6306774;22;19993;-93
2022/08/24 08:47:37;;;;;;;;;;;;;;;13.63;100.00;99783.31;6306415;22;19996;-88
2022/08/24 08:50:06;;;;;;;;;;;;;;;13.76;100.00;99786.16;6218521;22;19914;-93
2022/08/24 08:52:45;;;;;;;;;;;;;;;13.80;100.00;99778.84;6306317;22;19918;-91
2022/08/24 08:55:26;;;;;;;;;;;;;;;13.62;100.00;99783.41;6279482;22;20108;-91
2022/08/24 08:57:51;;;;;;;;;;;;;;;13.86;100.00;99775.84;6282794;22;19918;-89
2022/08/24 09:00:23;;;;;;;;;;;;;;;13.70;100.00;99775.00;6307307;22;20250;-90
2022/08/24 09:03:02;;;;;;;;;;;;;;;13.83;100.00;99770.69;6278957;22;19962;-87
2022/08/24 09:05:33;;;;;;;;;;;;;;;13.74;100.00;99776.56;6304741;22;19915;-91
2022/08/24 09:08:04;;;;;;;;;;;;;;;13.66;100.00;99773.44;6279098;22;19930;-89
2022/08/24 09:10:48;;;;;;;;;;;;;;;13.84;100.00;99769.75;6306646;22;19915;-87
2022/08/24 09:13:16;;;;;;;;;;;;;;;13.65;100.00;99769.91;6279348;22;19911;-91
2022/08/24 09:15:45;;;;;;;;;;;;;;;13.88;100.00;99773.09;6278020;22;21523;-95
2022/08/24 09:18:23;;;;;;;;;;;;;;;13.70;100.00;99764.34;6274209;22;19947;-86
2022/08/24 09:20:49;;;;;;;;;;;;;;;13.77;100.00;99766.56;6272620;22;20335;-86
2022/08/24 09:23:14;;;;;;;;;;;;;;;13.78;100.00;99767.44;6274483;22;19911;-86
2022/08/24 09:26:08;;;;;;;;;;;;;;;13.66;100.00;99768.09;6275285;22;19965;-86
2022/08/24 09:28:33;;;;;;;;;;;;;;;13.91;100.00;99767.59;6216215;22;19919;-84
2022/08/24 09:31:02;;;;;;;;;;;;;;;13.73;100.00;99769.50;6275763;22;19912;-90
2022/08/24 09:33:46;;;;;;;;;;;;;;;13.92;100.00;99770.16;6273747;22;19922;-89
2022/08/24 09:36:18;;;;;;;;;;;;;;;13.83;100.00;99769.84;6272516;22;19993;-91
2022/08/24 09:38:53;;;;;;;;;;;;;;;13.72;100.00;99773.09;6248129;22;20421;-91
2022/08/24 09:41:34;;;;;;;;;;;;;;;13.91;100.00;99763.13;6275658;22;19923;-84
2022/08/24 09:43:59;;;;;;;;;;;;;;;13.73;100.00;99766.84;6274011;22;19939;-87
2022/08/24 09:46:48;;;;;;;;;;;;;;;13.96;100.00;99763.72;6273674;22;19918;-87
2022/08/24 09:49:13;;;;;;;;;;;;;;;13.84;100.00;99764.41;6202574;22;19915;-90
2022/08/24 09:51:57;;;;;;;;;;;;;;;13.97;100.00;99762.75;6275581;22;19915;-92
2022/08/24 09:54:28;;;;;;;;;;;;;;;13.90;100.00;99764.06;6248446;22;20349;-92
2022/08/24 09:57:18;;;;;;;;;;;;;;;13.79;100.00;99764.69;6274692;22;19926;-91
2022/08/24 10:00:12;;;;;;;;;;;;;;;13.99;100.00;99762.69;6249850;22;20394;-87
2022/08/24 10:02:43;;;;;;;;;;;;;;;13.90;100.00;99761.41;6277138;22;19912;-93
2022/08/24 10:05:22;;;;;;;;;;;;;;;13.80;100.00;99753.09;6274303;22;20006;-89
2022/08/24 10:08:04;;;;;;;;;;;;;;;13.95;100.00;99754.00;6277244;22;19998;-86
2022/08/24 10:10:39;;;;;;;;;;;;;;;13.80;100.00;99750.44;6276043;22;19915;-85
2022/08/24 10:13:12;;;;;;;;;;;;;;;13.99;100.00;99744.91;6275782;22;20359;-86
2022/08/24 10:15:46;;;;;;;;;;;;;;;13.90;100.00;99747.25;6275084;22;19911;-86
2022/08/24 10:18:21;;;;;;;;;;;;;;;13.84;100.00;99743.13;6249537;22;19982;-87
2022/08/24 10:20:52;;;;;;;;;;;;;;;13.97;100.00;99740.59;6275345;22;19915;-91
2022/08/24 10:23:23;;;;;;;;;;;;;;;13.77;100.00;99731.97;6276892;22;19912;-91
2022/08/24 10:26:01;;;;;;;;;;;;;;;13.96;100.00;99737.09;6276755;22;19915;-89
2022/08/24 10:28:45;;;;;;;;;;;;;;;13.86;100.00;99727.06;6249574;22;19911;-92
2022/08/24 10:31:13;;;;;;;;;;;;;;;13.78;100.00;99725.66;6279013;22;19990;-91
2022/08/24 10:33:44;;;;;;;;;;;;;;;13.94;100.00;99719.47;6275908;22;20316;-90
2022/08/24 10:36:10;;;;;;;;;;;;;;;13.79;100.00;99719.41;6275401;22;19946;-89
2022/08/24 10:41:41;;;;;;;;;;;;;;;13.92;100.00;99718.72;6276644;22;19922;-87
2022/08/24 10:44:30;;;;;;;;;;;;;;;13.78;100.00;99714.16;6275076;22;19911;-93
2022/08/24 10:47:14;;;;;;;;;;;;;;;13.97;100.00;99706.81;6209608;22;19911;-91
2022/08/24 10:49:58;;;;;;;;;;;;;;;13.90;100.00;99710.81;6275398;22;20206;-91
2022/08/24 10:52:23;;;;;;;;;;;;;;;13.77;100.00;99710.66;6276516;22;20327;-88
2022/08/24 10:54:49;;;;;;;;;;;;;;;13.95;100.00;99710.53;6276564;22;19919;-89
2022/08/24 10:57:23;;;;;;;;;;;;;;;13.79;100.00;99703.44;6277050;22;19986;-91
2022/08/24 10:59:54;;;;;;;;;;;;;;;13.95;100.00;99700.75;6249752;22;20319;-95
2022/08/24 11:02:30;;;;;;;;;;;;;;;13.84;100.00;99703.16;6275478;22;20342;-93
2022/08/24 11:04:57;;;;;;;;;;;;;;;13.73;100.00;99689.63;6273385;22;20450;-88
2022/08/24 11:07:22;;;;;;;;;;;;;;;13.95;100.00;99691.91;6275048;22;19915;-88
2022/08/24 11:09:52;;;;;;;;;;;;;;;13.76;100.00;99700.09;6276375;22;20349;-84
2022/08/24 11:12:20;;;;;;;;;;;;;;;13.97;100.00;99690.84;6276330;22;19916;-87
2022/08/24 11:14:50;;;;;;;;;;;;;;;13.82;100.00;99699.75;6276688;22;19965;-94
2022/08/24 11:17:18;;;;;;;;;;;;;;;13.84;100.00;99697.00;6276396;22;19916;-86
2022/08/24 11:19:43;;;;;;;;;;;;;;;13.89;100.00;99690.44;6274758;22;19915;-85
2022/08/24 11:22:39;;;;;;;;;;;;;;;13.71;100.00;99691.53;6249161;22;19911;-84
2022/08/24 11:25:23;;;;;;;;;;;;;;;13.98;100.00;99681.06;6244695;22;19915;-89
2022/08/24 11:27:50;;;;;;;;;;;;;;;13.86;100.00;99684.44;6275919;22;20238;-87
2022/08/24 11:30:19;;;;;;;;;;;;;;;13.77;100.00;99685.84;6274741;22;19998;-84
2022/08/24 11:32:50;;;;;;;;;;;;;;;13.91;100.00;99683.25;6274610;22;19922;-84
2022/08/24 11:35:22;;;;;;;;;;;;;;;13.74;100.00;99681.53;6273146;22;20322;-84
2022/08/24 11:37:48;;;;;;;;;;;;;;;13.94;100.00;99675.03;6249532;22;19911;-88
2022/08/24 11:40:14;;;;;;;;;;;;;;;13.78;100.00;99677.75;6276932;22;19915;-90
2022/08/24 11:42:58;;;;;;;;;;;;;;;13.89;100.00;99679.78;6276749;22;19986;-86
2022/08/24 11:45:29;;;;;;;;;;;;;;;13.88;100.00;99680.75;6276806;22;20333;-85
2022/08/24 11:48:00;;;;;;;;;;;;;;;13.74;100.00;99688.69;6276226;22;19915;-87
2022/08/24 11:50:32;;;;;;;;;;;;;;;13.98;100.00;99671.25;6247823;22;19915;-91
2022/08/24 11:52:57;;;;;;;;;;;;;;;13.83;100.00;99669.47;6275870;22;19954;-89
2022/08/24 11:55:32;;;;;;;;;;;;;;;13.82;100.00;99673.13;6274966;22;19965;-90
2022/08/24 11:58:01;;;;;;;;;;;;;;;13.94;100.00;99666.19;6276014;22;20347;-84
2022/08/24 12:00:33;;;;;;;;;;;;;;;13.78;100.00;99667.09;6275859;22;19911;-88
2022/08/24 12:03:01;;;;;;;;;;;;;;;13.99;100.00;99662.34;6248843;22;19919;-87
2022/08/24 12:05:26;;;;;;;;;;;;;;;13.84;100.00;99662.38;6273560;22;19941;-90
2022/08/24 12:08:01;;;;;;;;;;;;;;;13.86;100.00;99665.78;6274818;22;19919;-89
2022/08/24 12:10:37;;;;;;;;;;;;;;;13.94;100.00;99661.72;6274739;22;19911;-87
2022/08/24 12:13:17;;;;;;;;;;;;;;;13.76;100.00;99666.31;6276265;22;19907;-88
2022/08/24 12:16:15;;;;;;;;;;;;;;;13.96;100.00;99665.19;6275495;22;19919;-89
2022/08/24 12:18:43;;;;;;;;;;;;;;;13.90;100.00;99657.53;6166386;22;20281;-87
2022/08/24 12:21:11;;;;;;;;;;;;;;;13.76;100.00;99658.34;6274208;22;19922;-88
2022/08/24 12:23:39;;;;;;;;;;;;;;;13.98;100.00;99654.44;6248718;22;19911;-85
2022/08/24 12:26:15;;;;;;;;;;;;;;;13.81;100.00;99655.41;6248994;22;19919;-89
2022/08/24 12:28:48;;;;;;;;;;;;;;;13.90;100.00;99657.53;6276387;22;20281;-91
2022/08/24 12:31:19;;;;;;;;;;;;;;;13.92;100.00;99652.13;6276052;22;19916;-89
2022/08/24 12:33:47;;;;;;;;;;;;;;;13.77;100.00;99654.75;6273918;22;19911;-89
2022/08/24 12:36:33;;;;;;;;;;;;;;;14.00;100.00;99660.53;6247286;22;19915;-84
2022/08/24 12:39:11;;;;;;;;;;;;;;;13.86;100.00;99657.81;6274255;22;19911;-87
2022/08/24 12:41:40;;;;;;;;;;;;;;;13.88;100.00;99655.91;6275557;22;19935;-88
2022/08/24 12:44:08;;;;;;;;;;;;;;;13.91;100.00;99659.28;6275814;22;19915;-87
2022/08/24 12:46:34;;;;;;;;;;;;;;;13.77;100.00;99654.75;6248641;22;19923;-89
2022/08/24 12:49:00;;;;;;;;;;;;;;;14.04;100.00;99639.88;6273435;22;19986;-84
2022/08/24 12:51:45;;;;;;;;;;;;;;;13.83;100.00;99637.53;6274526;22;19938;-86
2022/08/24 12:54:10;;;;;;;;;;;;;;;13.86;100.00;99639.16;6274425;22;20006;-87
2022/08/24 12:56:58;;;;;;;;;;;;;;;13.90;100.00;99643.38;6275303;22;20335;-85
2022/08/24 12:59:46;;;;;;;;;;;;;;;13.78;100.00;99644.94;6228483;22;20259;-88
2022/08/24 13:02:14;;;;;;;;;;;;;;;13.97;100.00;99650.03;6275979;22;19997;-94
2022/08/24 13:04:48;;;;;;;;;;;;;;;13.91;100.00;99642.41;6274373;22;19919;-84
2022/08/24 13:07:22;;;;;;;;;;;;;;;13.79;100.00;99641.34;6273695;22;19922;-92
2022/08/24 13:10:03;;;;;;;;;;;;;;;13.97;100.00;99639.38;6275434;22;20434;-92
2022/08/24 13:12:29;;;;;;;;;;;;;;;13.77;100.00;99637.91;6248778;22;19912;-90
2022/08/24 13:15:14;;;;;;;;;;;;;;;13.89;100.00;99631.00;6275332;22;19912;-88
2022/08/24 13:17:40;;;;;;;;;;;;;;;13.87;100.00;99619.59;6217475;23;19924;-84
2022/08/24 13:20:24;;;;;;;;;;;;;;;13.78;100.00;99626.28;6090344;23;20225;-87
2022/08/24 13:23:02;;;;;;;;;;;;;;;13.94;100.00;99634.25;6091675;23;19913;-90
2022/08/24 13:25:40;;;;;;;;;;;;;;;13.77;100.00;99627.25;6091538;23;19914;-92
2022/08/24 13:28:07;;;;;;;;;;;;;;;13.88;100.00;99623.94;6217629;23;19917;-93
2022/08/24 13:30:35;;;;;;;;;;;;;;;13.89;100.00;99631.00;6217601;23;19943;-85
2022/08/24 13:33:03;;;;;;;;;;;;;;;13.81;100.00;99628.78;6092638;23;19921;-85
2022/08/24 13:35:33;;;;;;;;;;;;;;;13.96;100.00;99630.53;6218173;23;20008;-84
2022/08/24 13:38:17;;;;;;;;;;;;;;;13.83;100.00;99618.88;6092919;23;19913;-85
2022/08/24 13:40:47;;;;;;;;;;;;;;;14.03;100.00;99622.19;6092733;23;19921;-88
2022/08/24 13:43:27;;;;;;;;;;;;;;;13.94;100.00;99619.09;6093379;23;19913;-93
2022/08/24 13:45:57;;;;;;;;;;;;;;;13.80;100.00;99611.97;6092754;23;19914;-92
2022/08/24 13:48:25;;;;;;;;;;;;;;;13.97;100.00;99610.09;6092674;23;19914;-90
2022/08/24 13:51:09;;;;;;;;;;;;;;;13.81;100.00;99607.47;6091194;23;19913;-92
2022/08/24 13:53:34;;;;;;;;;;;;;;;13.97;100.00;99605.59;6219399;23;19968;-93
2022/08/24 13:56:18;;;;;;;;;;;;;;;13.91;100.00;99607.78;6220224;23;19992;-90
2022/08/24 13:59:01;;;;;;;;;;;;;;;13.75;100.00;99598.06;6093506;23;19913;-93
2022/08/24 14:01:46;;;;;;;;;;;;;;;14.04;100.00;99597.25;6220109;23;19945;-92
2022/08/24 14:04:14;;;;;;;;;;;;;;;13.85;100.00;99597.50;6218220;23;20230;-94
2022/08/24 14:06:54;;;;;;;;;;;;;;;13.94;100.00;99597.81;6092669;23;19924;-91
2022/08/24 14:09:37;;;;;;;;;;;;;;;13.96;100.00;99601.25;6093213;23;19949;-90
2022/08/24 14:12:21;;;;;;;;;;;;;;;13.77;100.00;99596.16;6219771;23;20226;-87
2022/08/24 14:15:05;;;;;;;;;;;;;;;14.05;100.00;99594.50;6092776;23;19931;-89
2022/08/24 14:20:14;;;;;;;;;;;;;;;13.88;100.00;99586.66;6091126;23;19963;-83
2022/08/24 14:22:39;;;;;;;;;;;;;;;14.01;100.00;99592.09;6194231;23;19918;-84
2022/08/24 14:25:19;;;;;;;;;;;;;;;13.88;100.00;99592.88;6194303;23;20241;-85
2022/08/24 14:27:50;;;;;;;;;;;;;;;14.13;100.00;99591.38;6219666;23;19918;-95
2022/08/24 14:30:18;;;;;;;;;;;;;;;13.91;100.00;99584.69;6093197;23;19967;-84
2022/08/24 14:33:07;;;;;;;;;;;;;;;13.95;100.00;99585.34;6194629;23;19917;-94
2022/08/24 14:35:41;;;;;;;;;;;;;;;14.08;100.00;99596.13;6134664;23;19913;-88
2022/08/24 14:38:19;;;;;;;;;;;;;;;13.88;100.00;99591.97;6194207;23;19919;-89
2022/08/24 14:41:03;;;;;;;;;;;;;;;14.11;100.00;99587.94;6194312;23;19996;-89
2022/08/24 14:43:47;;;;;;;;;;;;;;;14.01;100.00;99582.31;6093475;23;19921;-91
2022/08/24 14:46:18;;;;;;;;;;;;;;;13.85;100.00;99587.72;6093256;23;19913;-85
2022/08/24 14:49:01;;;;;;;;;;;;;;;14.05;100.00;99580.34;6092954;23;19924;-85
2022/08/24 14:51:42;;;;;;;;;;;;;;;13.90;100.00;99580.31;6092043;23;20356;-91
2022/08/24 14:54:07;;;;;;;;;;;;;;;13.98;100.00;99571.84;6195972;23;20322;-88
2022/08/24 14:56:49;;;;;;;;;;;;;;;13.97;100.00;99572.78;6093611;23;19928;-94
2022/08/24 14:59:21;;;;;;;;;;;;;;;13.88;100.00;99571.56;6194277;23;19921;-91
2022/08/24 15:01:48;;;;;;;;;;;;;;;14.09;100.00;99569.41;6193624;23;20279;-90
2022/08/24 15:04:20;;;;;;;;;;;;;;;13.95;100.00;99574.72;6192031;23;19921;-90
2022/08/24 15:06:45;;;;;;;;;;;;;;;14.11;100.00;99563.97;6194236;23;19920;-93
2022/08/24 15:09:20;;;;;;;;;;;;;;;13.96;100.00;99553.31;6193980;23;19917;-95
2022/08/24 15:11:46;;;;;;;;;;;;;;;14.09;100.00;99560.56;6195313;23;19996;-84
2022/08/24 15:14:21;;;;;;;;;;;;;;;14.10;100.00;99557.78;6193594;23;19921;-91
2022/08/24 15:16:48;;;;;;;;;;;;;;;13.95;100.00;99566.72;6193291;22;19924;-89
2022/08/24 15:19:18;;;;;;;;;;;;;;;14.16;100.00;99568.06;6089986;23;20222;-91
2022/08/24 15:21:50;;;;;;;;;;;;;;;14.05;100.00;99559.03;6092365;23;19913;-92
2022/08/24 15:24:15;;;;;;;;;;;;;;;14.92;100.00;99563.38;6091726;23;19918;-91
2022/08/24 15:26:59;;;;;;;;;;;;;;;14.23;100.00;99559.69;6092519;23;19959;-90
2022/08/24 15:29:29;;;;;;;;;;;;;;;13.92;100.00;99559.75;6091826;23;19917;-84
2022/08/24 15:32:03;;;;;;;;;;;;;;;14.07;100.00;99554.44;6217382;23;20295;-88
2022/08/24 15:34:41;;;;;;;;;;;;;;;13.88;100.00;99558.25;6090784;23;20336;-87
2022/08/24 15:37:07;;;;;;;;;;;;;;;13.96;100.00;99553.31;6091752;23;19970;-86
2022/08/24 15:39:36;;;;;;;;;;;;;;;13.86;100.00;99551.28;6217961;23;19979;-91
2022/08/24 15:42:08;;;;;;;;;;;;;;;13.78;100.00;99554.41;6102848;23;20317;-87
2022/08/24 15:44:35;;;;;;;;;;;;;;;13.90;100.00;99551.00;6093560;23;19922;-88
2022/08/24 15:47:03;;;;;;;;;;;;;;;13.74;100.00;99550.22;6218883;23;19918;-87
2022/08/24 15:49:32;;;;;;;;;;;;;;;13.91;100.00;99552.72;6091908;23;19914;-92
2022/08/24 15:52:02;;;;;;;;;;;;;;;13.74;100.00;99547.56;6217520;23;19922;-85
2022/08/24 15:54:30;;;;;;;;;;;;;;;13.93;100.00;99547.31;6091171;23;19922;-84
2022/08/24 15:57:14;;;;;;;;;;;;;;;13.81;100.00;99543.56;6218435;23;19917;-85
2022/08/24 15:59:40;;;;;;;;;;;;;;;13.75;100.00;99551.91;6091841;23;19920;-85
2022/08/24 16:05:01;;;;;;;;;;;;;;;13.74;100.00;99542.25;6089288;23;20329;-87
2022/08/24 16:07:52;;;;;;;;;;;;;;;13.89;100.00;99545.78;6092448;23;20256;-85
2022/08/24 16:10:27;;;;;;;;;;;;;;;13.88;100.00;99550.25;6216957;23;20341;-86
2022/08/24 16:12:53;;;;;;;;;;;;;;;13.72;100.00;99545.00;6092260;23;19920;-87
2022/08/24 16:15:19;;;;;;;;;;;;;;;13.91;100.00;99550.06;6217054;23;20301;-84
2022/08/24 16:17:47;;;;;;;;;;;;;;;13.77;100.00;99552.72;6217623;22;19917;-88
2022/08/24 16:20:33;;;;;;;;;;;;;;;14.01;100.00;99547.69;6090365;23;19924;-86
2022/08/24 16:23:05;;;;;;;;;;;;;;;13.82;100.00;99545.28;6091742;23;19921;-87
2022/08/24 16:25:31;;;;;;;;;;;;;;;13.75;100.00;99551.91;6091300;23;19917;-85
2022/08/24 16:28:00;;;;;;;;;;;;;;;13.92;100.00;99542.94;6217148;23;19917;-84
2022/08/24 16:30:34;;;;;;;;;;;;;;;13.79;100.00;99550.81;6091944;23;19914;-86
2022/08/24 16:33:00;;;;;;;;;;;;;;;13.99;100.00;99537.13;6217632;23;19913;-84
2022/08/24 16:35:30;;;;;;;;;;;;;;;13.85;100.00;99542.44;6090446;23;19955;-85
2022/08/24 16:38:05;;;;;;;;;;;;;;;13.94;100.00;99546.34;6218049;23;19967;-86
2022/08/24 16:40:32;;;;;;;;;;;;;;;13.88;100.00;99550.25;6090924;23;19917;-83
2022/08/24 16:42:58;;;;;;;;;;;;;;;13.70;100.00;99543.34;6089835;23;19917;-85
2022/08/24 16:45:23;;;;;;;;;;;;;;;13.87;100.00;99553.00;6090973;23;19917;-87
2022/08/24 16:47:48;;;;;;;;;;;;;;;13.70;100.00;99549.53;6091172;23;19935;-87
2022/08/24 16:50:15;;;;;;;;;;;;;;;13.92;100.00;99554.44;6216203;23;19917;-88
2022/08/24 16:52:40;;;;;;;;;;;;;;;13.77;100.00;99555.38;6217583;23;20365;-88
2022/08/24 16:55:06;;;;;;;;;;;;;;;13.94;100.00;99554.34;6091985;23;19914;-83
2022/08/24 16:57:35;;;;;;;;;;;;;;;13.81;100.00;99556.88;6091787;23;19980;-86
2022/08/24 17:00:03;;;;;;;;;;;;;;;13.91;100.00;99557.19;6217400;23;19917;-85
2022/08/24 17:02:28;;;;;;;;;;;;;;;13.92;100.00;99557.09;6091039;23;20349;-90
2022/08/24 17:04:54;;;;;;;;;;;;;;;13.77;100.00;99558.03;6215584;23;19918;-86
2022/08/24 17:07:23;;;;;;;;;;;;;;;13.90;100.00;99561.66;6091389;23;19940;-85
2022/08/24 17:09:48;;;;;;;;;;;;;;;13.74;100.00;99567.03;6219364;23;19940;-86
2022/08/24 17:12:14;;;;;;;;;;;;;;;13.98;100.00;99570.03;6091849;23;20283;-88
2022/08/24 17:14:39;;;;;;;;;;;;;;;13.83;100.00;99570.09;6218228;23;20570;-85
2022/08/24 17:17:05;;;;;;;;;;;;;;;13.93;100.00;99568.63;6219062;22;19952;-85
2022/08/24 17:19:31;;;;;;;;;;;;;;;13.87;100.00;99569.84;6090556;23;20461;-88
2022/08/24 17:21:57;;;;;;;;;;;;;;;13.73;100.00;99567.97;6091478;23;20229;-89
2022/08/24 17:24:22;;;;;;;;;;;;;;;13.89;100.00;99567.94;6218937;23;19913;-85
2022/08/24 17:26:49;;;;;;;;;;;;;;;13.73;100.00;99570.66;6092692;23;19913;-87
2022/08/24 17:29:15;;;;;;;;;;;;;;;13.92;100.00;99567.75;6092660;23;20383;-91
2022/08/24 17:31:41;;;;;;;;;;;;;;;13.76;100.00;99569.63;6219900;23;19913;-84
2022/08/24 17:34:13;;;;;;;;;;;;;;;13.97;100.00;99568.31;6217721;23;19917;-85
2022/08/24 17:36:40;;;;;;;;;;;;;;;13.86;100.00;99575.25;6213541;23;20267;-84
2022/08/24 17:39:08;;;;;;;;;;;;;;;13.80;100.00;99579.13;6187437;23;19912;-83
2022/08/24 17:41:33;;;;;;;;;;;;;;;13.86;100.00;99584.09;6187910;23;19995;-84
2022/08/24 17:44:00;;;;;;;;;;;;;;;13.67;100.00;99583.47;6187432;23;19935;-85
2022/08/24 17:46:28;;;;;;;;;;;;;;;13.90;100.00;99585.63;6213734;23;19912;-90
2022/08/24 17:48:54;;;;;;;;;;;;;;;13.75;100.00;99582.09;6213428;23;19916;-93
2022/08/24 17:51:20;;;;;;;;;;;;;;;13.86;100.00;99589.41;6186619;23;19912;-89
2022/08/24 17:53:45;;;;;;;;;;;;;;;13.77;100.00;99588.16;6187638;23;20003;-86
2022/08/24 17:56:12;;;;;;;;;;;;;;;13.70;100.00;99586.81;6212681;23;20582;-91
2022/08/24 17:59:18;;;;;;;;;;;;;;;13.83;100.00;99588.75;6188306;23;19916;-91
2022/08/24 18:01:49;;;;;;;;;;;;;;;13.70;100.00;99594.78;6125839;23;20737;-94
2022/08/24 18:04:15;;;;;;;;;;;;;;;13.83;100.00;99592.25;6091190;23;19996;-86
2022/08/24 18:06:40;;;;;;;;;;;;;;;13.77;100.00;99595.31;6091265;23;19952;-91
2022/08/24 18:09:15;;;;;;;;;;;;;;;13.62;100.00;99597.94;6219134;23;19914;-87
2022/08/24 18:11:40;;;;;;;;;;;;;;;13.84;100.00;99593.97;6219056;23;20075;-84
2022/08/24 18:14:05;;;;;;;;;;;;;;;13.65;100.00;99596.03;6092270;23;19949;-87
2022/08/24 18:16:30;;;;;;;;;;;;;;;13.86;100.00;99605.38;6217750;22;19917;-86
2022/08/24 18:18:56;;;;;;;;;;;;;;;13.71;100.00;99607.16;6193441;23;19913;-84
2022/08/24 18:21:21;;;;;;;;;;;;;;;13.78;100.00;99605.00;6090546;23;19988;-84
2022/08/24 18:23:47;;;;;;;;;;;;;;;13.80;100.00;99603.09;6219036;23;19913;-84
2022/08/24 18:26:27;;;;;;;;;;;;;;;13.62;100.00;99605.91;6220164;23;19923;-84
2022/08/24 18:28:53;;;;;;;;;;;;;;;13.86;100.00;99605.38;6092648;23;19992;-85
2022/08/24 18:31:19;;;;;;;;;;;;;;;13.72;100.00;99608.00;6092443;23;20380;-84
2022/08/24 18:33:45;;;;;;;;;;;;;;;13.83;100.00;99616.22;6217197;23;19952;-83
2022/08/24 18:36:10;;;;;;;;;;;;;;;13.77;100.00;99613.94;6217215;23;19913;-86
2022/08/24 18:38:36;;;;;;;;;;;;;;;13.66;100.00;99611.03;6092197;23;20381;-84
2022/08/24 18:41:06;;;;;;;;;;;;;;;13.84;100.00;99615.28;6090656;23;19913;-87
2022/08/24 18:43:32;;;;;;;;;;;;;;;13.66;100.00;99622.56;6218957;23;19940;-87
2022/08/24 18:45:57;;;;;;;;;;;;;;;13.88;100.00;99618.63;6092103;23;19926;-84
2022/08/24 18:48:22;;;;;;;;;;;;;;;13.71;100.00;99625.81;6218755;23;19959;-91
2022/08/24 18:50:48;;;;;;;;;;;;;;;13.83;100.00;99623.38;6217637;23;19984;-90
2022/08/24 18:53:14;;;;;;;;;;;;;;;13.79;100.00;99628.88;6218957;23;20004;-88
2022/08/24 18:55:41;;;;;;;;;;;;;;;13.70;100.00;99629.41;6092628;23;19988;-86
2022/08/24 18:58:07;;;;;;;;;;;;;;;13.89;100.00;99637.16;6091003;23;19991;-87
2022/08/24 19:00:32;;;;;;;;;;;;;;;13.69;100.00;99635.69;6092057;23;19917;-85
2022/08/24 19:03:00;;;;;;;;;;;;;;;13.91;100.00;99635.28;6091738;23;20032;-87
2022/08/24 19:08:11;;;;;;;;;;;;;;;13.74;100.00;99627.44;6130745;23;19913;-91
2022/08/24 19:10:37;;;;;;;;;;;;;;;13.86;100.00;99636.50;6218849;23;19920;-87
2022/08/24 19:13:06;;;;;;;;;;;;;;;13.65;100.00;99633.28;6092764;23;19917;-90
2022/08/24 19:15:31;;;;;;;;;;;;;;;13.91;100.00;99635.28;6218632;23;19914;-88
2022/08/24 19:17:57;;;;;;;;;;;;;;;13.77;100.00;99633.44;6220290;22;19944;-86
2022/08/24 19:20:23;;;;;;;;;;;;;;;13.97;100.00;99636.72;6090661;23;19979;-90
2022/08/24 19:22:48;;;;;;;;;;;;;;;13.83;100.00;99637.53;6216683;23;20381;-92
2022/08/24 19:25:21;;;;;;;;;;;;;;;13.85;100.00;99634.78;6218535;23;19960;-83
2022/08/24 19:27:47;;;;;;;;;;;;;;;13.94;100.00;99634.25;6218778;23;19936;-89
2022/08/24 19:30:12;;;;;;;;;;;;;;;13.76;100.00;99641.50;6092153;23;20317;-91
2022/08/24 19:32:39;;;;;;;;;;;;;;;14.01;100.00;99637.38;6218382;23;19975;-88
2022/08/24 19:35:05;;;;;;;;;;;;;;;13.78;100.00;99640.47;6090759;23;19954;-88
2022/08/24 19:37:31;;;;;;;;;;;;;;;14.03;100.00;99632.84;6092386;23;19984;-87
2022/08/24 19:39:56;;;;;;;;;;;;;;;13.87;100.00;99632.91;6092233;23;19941;-84
2022/08/24 19:42:22;;;;;;;;;;;;;;;13.99;100.00;99633.03;6218181;23;19921;-86
2022/08/24 19:47:33;;;;;;;;;;;;;;;13.80;100.00;99630.59;6092075;23;19924;-91
2022/08/24 19:49:58;;;;;;;;;;;;;;;13.98;100.00;99633.13;6089379;23;19924;-89
2022/08/24 19:52:26;;;;;;;;;;;;;;;13.83;100.00;99637.53;6091090;23;19917;-87